Pagrindinis puslapis
METAR-TAF:

METAR-TAF

Oro uostai :

Bakeu, Rumunija

platuma: 46-35N, ilguma: 026-58E, Aukštis: 184 m

Dabartinis oras

Ataskaita buvo paskelbta 10 minutes, ne 06:00 UTC
Vėjas 3 kt iš Pietų, svyruoja nuo Rytų/Pietryčių ir Vakarų
Temperatūra -3°C
Drėgmė 100%
Slėgis 1015 hPa
Matomumas: 0100 m
įšaldymas rūko

METAR: LRBC 070600Z 18003KT 120V260 0100 R34/0225N FZFG VV001 M03/M03 Q1015

Laikas: 08:10 (06:10 UTC)

Prognozė

Ataskaita buvo paskelbta 1 valandą ir 10 minutes, ne 05:00 UTC
Prognozė galioja nuo 07 metu 06 UTC su 07 metu 15 UTC
Vėjas 6 kt iš Pietryčių
Matomumas: 0150 m
ne aukštis 100 ft
įšaldymas rūko
Tapsmas
nuo 07 metu 06 UTC su 07 metu 08 UTC
Matomumas: 0800 m
Su prošvaistėmis ne aukštis 200 ft
Tapsmas
nuo 07 metu 08 UTC su 07 metu 09 UTC
Matomumas: 3000 m
Tapsmas
nuo 07 metu 09 UTC su 07 metu 10 UTC
Matomumas 10 km arba daugiau
nėra debesų žemiau 1500 m ir nėra kamuolinių lietaus debesų

TAF: LRBC 070500Z 0706/0715 14006KT 0150 FZFG VV001 BECMG 0706/0708 0800 BKN002 BECMG 0708/0709 3000 NSC BECMG 0709/0710 CAVOK

Orai ataskaitas ir orų prognozės (METAR, TAF).

turimą stotys yra geltonos ir raudonos taškus žemėlapyje.

Perkelti pele per norėdami pamatyti stoties vardą.

Tada spustelėkite, norėdami matyti oro stebėjimo ir prognozės.

Norėdami pakeisti žemėlapį: spustelėkite ant žalios mygtukų su juodo kryžiaus žemyn,; žalią mygtuką su brūkšneliu, jei norite nutolinti; arba žalių rodyklių gretimoms žemėlapius.


METAR-TAF: